Time;durP1;ratioP1;P1;durP2;ratioP2;P2;SDS_P1;SDS_P2;PMS_P1;PMS_P2;Temp;Humidity;BMP_temperature;BMP_pressure;BME280_temperature;BME280_humidity;BME280_pressure;Samples;Min_cycle;Max_cycle;Signal;HPM_P1;HPM_P2
2023/10/23 00:01:40;;;;;;;3.73;1.53;;;9.50;99.90;;;;;;5073066;28;20248;-85
2023/10/23 00:04:07;;;;;;;1.40;1.27;;;9.50;99.90;;;;;;5074368;28;20217;-83
2023/10/23 00:06:33;;;;;;;1.90;1.47;;;9.50;99.90;;;;;;5041017;28;20212;-85
2023/10/23 00:09:00;;;;;;;1.80;0.93;;;9.40;99.90;;;;;;5074456;28;20226;-84
2023/10/23 00:11:28;;;;;;;2.50;1.60;;;9.30;99.90;;;;;;5073816;28;20217;-84
2023/10/23 00:13:54;;;;;;;1.50;1.40;;;9.30;99.90;;;;;;5075314;28;20224;-86
2023/10/23 00:16:20;;;;;;;1.93;1.40;;;9.30;99.90;;;;;;5057244;28;20228;-83
2023/10/23 00:18:46;;;;;;;0.90;0.90;;;9.20;99.90;;;;;;5074019;28;20217;-84
2023/10/23 00:21:13;;;;;;;38.13;2.40;;;9.20;99.90;;;;;;5041555;28;20272;-84
2023/10/23 00:23:38;;;;;;;2.37;1.87;;;9.20;99.90;;;;;;5057157;28;20221;-84
2023/10/23 00:26:07;;;;;;;1.07;1.07;;;9.20;99.90;;;;;;5057413;28;20233;-85
2023/10/23 00:28:34;;;;;;;1.83;1.73;;;9.20;99.90;;;;;;5072951;28;20687;-87
2023/10/23 00:30:59;;;;;;;1.90;1.47;;;9.10;99.90;;;;;;5056746;28;20692;-86
2023/10/23 00:33:26;;;;;;;1.40;1.20;;;9.10;99.90;;;;;;5073547;28;20177;-84
2023/10/23 00:35:52;;;;;;;1.10;1.10;;;9.10;99.90;;;;;;5073765;28;20648;-85
2023/10/23 00:38:18;;;;;;;2.53;1.67;;;9.10;99.90;;;;;;5057079;28;20213;-83
2023/10/23 00:40:44;;;;;;;1.37;1.27;;;9.00;99.90;;;;;;5073765;28;20270;-83
2023/10/23 00:43:21;;;;;;;2.63;2.20;;;9.00;99.90;;;;;;5073560;28;20678;-84
2023/10/23 00:45:59;;;;;;;1.03;1.03;;;9.00;99.90;;;;;;5072934;28;20233;-84
2023/10/23 00:48:27;;;;;;;2.37;1.17;;;9.00;99.90;;;;;;5073556;28;20223;-83
2023/10/23 00:50:58;;;;;;;2.00;1.73;;;9.00;99.90;;;;;;5057019;28;20182;-87
2023/10/23 00:53:27;;;;;;;1.47;1.37;;;9.00;99.90;;;;;;5073279;28;20209;-84
2023/10/23 00:55:54;;;;;;;1.73;1.63;;;9.00;99.90;;;;;;5056771;28;20670;-84
2023/10/23 00:58:23;;;;;;;1.00;0.93;;;9.00;99.90;;;;;;5056376;28;20213;-84
2023/10/23 01:00:48;;;;;;;1.13;1.13;;;9.00;99.90;;;;;;5073030;28;20667;-84
2023/10/23 01:03:14;;;;;;;1.07;1.07;;;9.00;99.90;;;;;;5073534;28;20188;-83
2023/10/23 01:05:40;;;;;;;1.40;1.27;;;8.90;99.90;;;;;;5074151;28;20241;-82
2023/10/23 01:08:06;;;;;;;1.40;1.30;;;9.00;99.90;;;;;;5056415;28;20296;-86
2023/10/23 01:10:33;;;;;;;1.57;1.47;;;9.00;99.90;;;;;;5072965;28;20300;-83
2023/10/23 01:12:59;;;;;;;1.57;1.47;;;9.10;99.90;;;;;;5056125;28;20301;-86
2023/10/23 01:15:24;;;;;;;1.20;1.20;;;9.10;99.90;;;;;;5073592;28;20710;-86
2023/10/23 01:17:50;;;;;;;1.93;1.83;;;9.10;99.90;;;;;;5074307;28;20173;-83
2023/10/23 01:20:18;;;;;;;2.20;1.67;;;9.10;99.90;;;;;;5055941;28;20225;-84
2023/10/23 01:22:43;;;;;;;1.70;1.60;;;9.10;99.90;;;;;;5072742;28;20206;-82
2023/10/23 01:25:16;;;;;;;1.90;1.80;;;9.20;99.90;;;;;;5072444;28;20317;-84
2023/10/23 01:27:43;;;;;;;2.70;1.73;;;9.30;99.90;;;;;;5073379;28;20649;-82
2023/10/23 01:30:09;;;;;;;1.33;1.23;;;9.20;99.90;;;;;;5072738;28;20327;-84
2023/10/23 01:32:38;;;;;;;4.50;2.73;;;9.20;99.90;;;;;;5072663;28;20227;-85
2023/10/23 01:35:05;;;;;;;2.80;1.50;;;9.20;99.90;;;;;;5073536;28;20252;-85
2023/10/23 01:37:31;;;;;;;1.37;1.27;;;9.20;99.90;;;;;;5073462;28;20465;-84
2023/10/23 01:39:57;;;;;;;2.03;1.73;;;9.20;99.90;;;;;;5072743;28;20213;-84
2023/10/23 01:42:22;;;;;;;2.13;1.93;;;9.20;99.90;;;;;;5055256;28;20552;-85
2023/10/23 01:44:48;;;;;;;2.07;1.97;;;9.20;99.90;;;;;;5072120;28;20212;-84
2023/10/23 01:47:14;;;;;;;1.20;1.13;;;9.10;99.90;;;;;;5039295;28;20587;-86
2023/10/23 01:49:40;;;;;;;2.47;1.53;;;9.20;99.90;;;;;;5055351;28;20629;-84
2023/10/23 01:52:05;;;;;;;1.57;1.47;;;9.20;99.90;;;;;;5055946;28;20225;-87
2023/10/23 01:54:31;;;;;;;3.87;2.70;;;9.20;99.90;;;;;;5071939;28;20181;-83
2023/10/23 01:56:57;;;;;;;1.73;1.63;;;9.20;99.90;;;;;;5072759;28;20632;-84
2023/10/23 01:59:23;;;;;;;2.43;2.13;;;9.20;99.90;;;;;;5071690;28;20314;-84
2023/10/23 02:01:49;;;;;;;5.93;1.63;;;9.20;99.90;;;;;;5071441;28;20654;-85
2023/10/23 02:04:14;;;;;;;1.83;1.60;;;9.30;99.90;;;;;;5072945;28;20292;-85
2023/10/23 02:06:40;;;;;;;2.27;1.50;;;9.20;99.90;;;;;;5071487;28;20240;-84
2023/10/23 02:09:07;;;;;;;4.57;1.63;;;9.20;99.90;;;;;;5072179;28;20545;-83
2023/10/23 02:11:33;;;;;;;1.93;1.80;;;9.20;99.90;;;;;;5071676;28;20213;-85
2023/10/23 02:13:59;;;;;;;1.87;1.77;;;9.20;99.90;;;;;;5072565;28;20732;-84
2023/10/23 02:16:25;;;;;;;3.20;1.93;;;9.20;99.90;;;;;;5071408;28;20224;-85
2023/10/23 02:18:50;;;;;;;1.27;1.13;;;9.20;99.90;;;;;;5054984;28;20721;-85
2023/10/23 02:21:16;;;;;;;4.27;1.27;;;9.30;99.90;;;;;;5072063;28;20174;-84
2023/10/23 02:23:42;;;;;;;1.80;1.70;;;9.30;99.90;;;;;;5071118;28;20213;-83
2023/10/23 02:26:07;;;;;;;1.80;1.70;;;9.30;99.90;;;;;;5071606;28;20221;-83
2023/10/23 02:28:33;;;;;;;1.60;1.37;;;9.30;99.90;;;;;;5038092;28;20248;-86
2023/10/23 02:31:05;;;;;;;5.63;2.87;;;9.30;99.90;;;;;;5071641;28;20722;-84
2023/10/23 02:33:30;;;;;;;3.80;2.20;;;9.30;99.90;;;;;;5071378;28;20283;-83
2023/10/23 02:35:56;;;;;;;2.63;2.43;;;9.30;99.90;;;;;;5055551;28;20189;-84
2023/10/23 02:38:22;;;;;;;2.87;1.20;;;9.30;99.90;;;;;;5072110;28;20672;-84
2023/10/23 02:40:54;;;;;;;2.43;2.20;;;9.20;99.90;;;;;;5071395;28;20217;-83
2023/10/23 02:43:21;;;;;;;2.00;1.80;;;9.30;99.90;;;;;;5072593;28;20681;-84
2023/10/23 02:45:47;;;;;;;4.73;2.13;;;9.30;99.90;;;;;;5070980;28;20680;-83
2023/10/23 02:48:19;;;;;;;2.30;2.20;;;9.20;99.90;;;;;;5071747;28;20189;-83
2023/10/23 02:50:55;;;;;;;1.43;1.33;;;9.20;99.90;;;;;;5071174;28;20296;-84
2023/10/23 02:53:21;;;;;;;2.87;1.93;;;9.10;99.90;;;;;;5071457;28;20216;-84
2023/10/23 02:55:47;;;;;;;2.00;1.87;;;9.20;99.90;;;;;;5071499;28;20227;-84
2023/10/23 02:58:13;;;;;;;3.07;2.57;;;9.20;99.90;;;;;;5070986;28;20278;-85
2023/10/23 03:00:41;;;;;;;3.23;2.03;;;9.20;99.90;;;;;;5054433;28;20181;-85
2023/10/23 03:03:07;;;;;;;2.43;1.83;;;9.10;99.90;;;;;;5038759;28;20188;-83
2023/10/23 03:05:33;;;;;;;4.23;2.77;;;9.20;99.90;;;;;;5071550;28;20225;-83
2023/10/23 03:07:59;;;;;;;3.67;2.90;;;9.30;99.90;;;;;;5054624;28;20220;-84
2023/10/23 03:10:26;;;;;;;3.83;2.30;;;9.30;99.90;;;;;;5054551;28;20229;-86
2023/10/23 03:12:52;;;;;;;3.53;2.13;;;9.20;99.90;;;;;;5071031;28;20206;-85
2023/10/23 03:15:18;;;;;;;3.43;2.27;;;9.20;99.90;;;;;;5072895;28;20185;-85
2023/10/23 03:17:44;;;;;;;4.20;2.17;;;9.30;99.90;;;;;;5070910;28;20288;-84
2023/10/23 03:20:11;;;;;;;1.47;1.23;;;9.30;99.90;;;;;;5054511;28;20657;-84
2023/10/23 03:22:37;;;;;;;3.13;2.83;;;9.40;99.90;;;;;;5054461;28;20683;-85
2023/10/23 03:25:03;;;;;;;2.60;2.40;;;9.30;99.90;;;;;;5070738;28;20229;-85
2023/10/23 03:27:29;;;;;;;3.77;2.20;;;9.30;99.90;;;;;;5054458;28;20198;-85
2023/10/23 03:29:55;;;;;;;2.37;2.00;;;9.30;99.90;;;;;;5054196;28;20316;-84
2023/10/23 03:32:20;;;;;;;4.07;2.70;;;9.30;99.90;;;;;;5072369;28;20245;-85
2023/10/23 03:34:46;;;;;;;3.50;2.80;;;9.30;99.90;;;;;;5055809;28;20564;-88
2023/10/23 03:37:12;;;;;;;3.23;3.03;;;9.30;99.90;;;;;;5041180;28;20217;-85
2023/10/23 03:39:38;;;;;;;2.67;2.37;;;9.20;99.90;;;;;;5074299;28;20188;-84
2023/10/23 03:42:04;;;;;;;3.63;3.00;;;9.20;99.90;;;;;;5075009;28;20185;-85
2023/10/23 03:44:30;;;;;;;3.77;2.47;;;9.20;99.90;;;;;;5057294;28;20221;-85
2023/10/23 03:46:56;;;;;;;5.80;2.43;;;9.10;99.90;;;;;;5075795;28;20281;-87
2023/10/23 03:49:21;;;;;;;3.07;2.83;;;9.20;99.90;;;;;;5040960;28;20680;-83
2023/10/23 03:51:47;;;;;;;4.40;2.80;;;9.10;99.90;;;;;;5074228;28;20225;-84
2023/10/23 03:54:15;;;;;;;2.03;1.93;;;9.10;99.90;;;;;;5057839;28;20177;-84
2023/10/23 03:56:41;;;;;;;2.67;2.47;;;9.10;99.90;;;;;;5057927;28;20657;-84
2023/10/23 03:59:06;;;;;;;4.03;3.60;;;9.10;99.90;;;;;;5074247;28;20225;-84
2023/10/23 04:01:32;;;;;;;2.50;2.30;;;9.10;99.90;;;;;;5058049;28;20217;-84
2023/10/23 04:03:58;;;;;;;3.57;3.23;;;9.10;99.90;;;;;;5074473;28;20213;-83
2023/10/23 04:06:24;;;;;;;3.80;3.53;;;9.10;99.90;;;;;;5074011;28;20228;-84
2023/10/23 04:08:52;;;;;;;3.63;3.30;;;9.10;99.90;;;;;;5074815;28;20173;-84
2023/10/23 04:11:18;;;;;;;5.20;3.67;;;9.20;99.90;;;;;;5057482;28;20304;-86
2023/10/23 04:13:44;;;;;;;3.50;2.00;;;9.20;99.90;;;;;;5075380;28;20249;-85
2023/10/23 04:16:10;;;;;;;6.73;3.20;;;9.10;99.90;;;;;;5040730;28;20252;-84
2023/10/23 04:18:36;;;;;;;5.67;2.73;;;9.10;99.90;;;;;;5074667;28;20266;-84
2023/10/23 04:21:07;;;;;;;5.60;3.23;;;9.10;99.90;;;;;;5074505;28;20189;-83
2023/10/23 04:23:33;;;;;;;2.97;2.67;;;9.20;99.90;;;;;;5075141;28;20217;-84
2023/10/23 04:25:59;;;;;;;4.87;3.97;;;9.20;99.90;;;;;;5074716;28;20263;-84
2023/10/23 04:28:25;;;;;;;4.13;3.73;;;9.10;99.90;;;;;;5057042;28;20363;-84
2023/10/23 04:30:51;;;;;;;3.30;3.03;;;9.10;99.90;;;;;;5056916;28;20736;-84
2023/10/23 04:33:21;;;;;;;4.67;3.67;;;9.10;99.90;;;;;;5073968;28;20185;-84
2023/10/23 04:35:50;;;;;;;3.77;2.80;;;9.00;99.90;;;;;;5074147;28;20214;-84
2023/10/23 04:38:16;;;;;;;5.77;3.20;;;9.00;99.90;;;;;;5073266;28;20221;-85
2023/10/23 04:40:44;;;;;;;4.03;3.57;;;9.00;99.90;;;;;;5074757;28;20217;-85
2023/10/23 04:43:11;;;;;;;3.87;3.57;;;9.00;99.90;;;;;;5056502;28;20213;-84
2023/10/23 04:45:37;;;;;;;6.50;3.37;;;9.00;99.90;;;;;;5072158;28;20296;-84
2023/10/23 04:48:04;;;;;;;3.27;2.77;;;8.90;99.90;;;;;;5073310;28;20190;-85
2023/10/23 04:50:31;;;;;;;3.13;2.93;;;9.10;99.90;;;;;;5039985;28;20214;-84
2023/10/23 04:52:59;;;;;;;2.83;2.73;;;9.00;99.90;;;;;;5057049;28;20232;-83
2023/10/23 04:55:25;;;;;;;2.17;1.83;;;9.10;99.90;;;;;;5074636;28;20282;-85
2023/10/23 04:57:51;;;;;;;3.40;3.10;;;9.10;99.90;;;;;;5073057;28;20263;-86
2023/10/23 05:00:19;;;;;;;5.30;2.50;;;9.10;99.90;;;;;;5074028;28;20606;-83
2023/10/23 05:02:47;;;;;;;3.63;2.87;;;9.10;99.90;;;;;;5072907;28;20217;-83
2023/10/23 05:05:13;;;;;;;3.63;2.57;;;9.10;99.90;;;;;;5073980;28;20225;-84
2023/10/23 05:07:39;;;;;;;4.03;3.00;;;9.00;99.90;;;;;;5072877;28;20220;-85
2023/10/23 05:10:09;;;;;;;2.87;2.57;;;8.90;99.90;;;;;;5073008;28;20217;-84
2023/10/23 05:12:38;;;;;;;1.73;1.53;;;8.90;99.90;;;;;;5056455;28;20181;-85
2023/10/23 05:15:04;;;;;;;33.33;2.80;;;8.40;99.90;;;;;;5072831;28;20260;-85
2023/10/23 05:17:30;;;;;;;4.10;1.67;;;8.00;99.90;;;;;;5072690;28;20240;-85
2023/10/23 05:19:56;;;;;;;2.40;2.20;;;7.60;99.90;;;;;;5056308;28;20221;-84
2023/10/23 05:22:22;;;;;;;1.53;1.43;;;7.10;99.90;;;;;;5039133;28;20679;-84
2023/10/23 05:24:57;;;;;;;1.93;1.83;;;7.00;99.90;;;;;;5057477;28;20239;-84
2023/10/23 05:27:34;;;;;;;1.47;1.37;;;7.10;99.90;;;;;;5074027;28;20173;-86
2023/10/23 05:29:59;;;;;;;2.87;2.53;;;7.40;99.90;;;;;;5056108;28;20400;-84
2023/10/23 05:32:25;;;;;;;2.20;2.07;;;7.70;99.90;;;;;;5039457;28;20299;-85
2023/10/23 05:34:51;;;;;;;1.43;1.33;;;7.90;99.90;;;;;;5072151;28;20221;-83
2023/10/23 05:37:17;;;;;;;2.47;2.27;;;8.00;99.90;;;;;;5072345;28;20623;-86
2023/10/23 05:39:42;;;;;;;2.47;2.33;;;8.10;99.90;;;;;;5071882;28;20240;-84
2023/10/23 05:42:08;;;;;;;1.80;1.70;;;8.20;99.90;;;;;;5039325;28;20204;-83
2023/10/23 05:44:34;;;;;;;2.17;1.97;;;8.10;99.90;;;;;;5056017;28;20224;-85
2023/10/23 05:47:00;;;;;;;14.07;2.27;;;8.10;99.90;;;;;;5071722;28;20592;-86
2023/10/23 05:49:26;;;;;;;3.97;1.73;;;8.10;99.90;;;;;;5072342;28;20217;-84
2023/10/23 05:51:55;;;;;;;1.83;1.73;;;8.20;99.90;;;;;;5071730;28;20217;-85
2023/10/23 05:54:21;;;;;;;3.20;2.87;;;8.20;99.90;;;;;;5039202;28;20272;-86
2023/10/23 05:56:47;;;;;;;1.67;1.57;;;8.10;99.90;;;;;;5055783;28;20279;-87
2023/10/23 05:59:12;;;;;;;1.20;1.20;;;8.10;99.90;;;;;;5055138;28;20213;-85
2023/10/23 06:01:38;;;;;;;1.57;1.47;;;8.00;99.90;;;;;;5054990;28;20651;-88
2023/10/23 06:04:04;;;;;;;2.40;1.57;;;8.10;99.90;;;;;;5072975;28;20216;-85
2023/10/23 06:06:30;;;;;;;1.97;1.80;;;8.10;99.90;;;;;;5072336;28;20244;-85
2023/10/23 06:08:56;;;;;;;1.67;1.57;;;8.10;99.90;;;;;;5055372;28;20247;-86
2023/10/23 06:11:23;;;;;;;2.80;2.60;;;8.10;99.90;;;;;;5054888;28;20645;-86
2023/10/23 06:13:49;;;;;;;1.60;1.50;;;8.10;99.90;;;;;;5054698;28;20221;-85
2023/10/23 06:16:15;;;;;;;2.43;1.80;;;8.00;99.90;;;;;;5072396;28;20228;-84
2023/10/23 06:18:41;;;;;;;1.63;1.53;;;8.00;99.90;;;;;;5071535;28;20217;-84
2023/10/23 06:21:07;;;;;;;3.17;2.87;;;8.00;99.90;;;;;;5071567;28;20193;-84
2023/10/23 06:23:34;;;;;;;2.27;1.23;;;8.10;99.90;;;;;;5071287;28;20594;-84
2023/10/23 06:26:01;;;;;;;1.70;1.60;;;8.20;99.90;;;;;;5070911;28;20312;-87
2023/10/23 06:28:27;;;;;;;1.63;1.53;;;8.10;99.90;;;;;;5054798;28;20274;-86
2023/10/23 06:30:53;;;;;;;2.43;1.93;;;8.20;99.90;;;;;;5054478;28;20752;-85
2023/10/23 06:33:18;;;;;;;5.90;4.83;;;8.10;99.90;;;;;;5038536;28;20177;-84
2023/10/23 06:35:44;;;;;;;3.20;3.00;;;8.20;99.90;;;;;;5038183;28;20224;-85
2023/10/23 06:38:10;;;;;;;2.50;2.30;;;8.20;99.90;;;;;;5072393;28;20258;-84
2023/10/23 06:40:36;;;;;;;7.23;4.17;;;8.10;99.90;;;;;;5037865;28;20733;-85
2023/10/23 06:43:02;;;;;;;4.67;3.23;;;8.20;99.90;;;;;;5071296;28;20217;-84
2023/10/23 06:45:28;;;;;;;3.57;3.27;;;8.40;99.90;;;;;;5071681;28;20273;-84
2023/10/23 06:47:53;;;;;;;3.57;2.50;;;8.40;99.90;;;;;;5054643;28;20642;-84
2023/10/23 06:50:19;;;;;;;1.53;1.43;;;8.50;99.90;;;;;;5071432;28;20221;-84
2023/10/23 06:52:45;;;;;;;2.07;1.97;;;8.20;99.90;;;;;;5054250;28;20217;-85
2023/10/23 06:55:12;;;;;;;1.63;1.53;;;8.00;99.90;;;;;;5071268;28;20248;-84
2023/10/23 06:57:38;;;;;;;1.40;1.30;;;7.80;99.90;;;;;;5070733;28;20187;-85
2023/10/23 07:00:06;;;;;;;1.53;1.43;;;7.60;99.90;;;;;;5072424;28;20190;-85
2023/10/23 07:02:32;;;;;;;2.57;2.40;;;7.40;99.90;;;;;;5071818;28;20232;-85
2023/10/23 07:05:01;;;;;;;1.57;1.47;;;7.60;99.90;;;;;;5070825;28;20240;-85
2023/10/23 07:07:28;;;;;;;8.13;1.10;;;7.80;99.90;;;;;;5054572;28;20279;-84
2023/10/23 07:09:58;;;;;;;2.20;1.97;;;8.10;99.90;;;;;;5072767;28;20262;-86
2023/10/23 07:12:24;;;;;;;9.43;1.43;;;8.10;99.90;;;;;;5074711;28;20190;-84
2023/10/23 07:14:50;;;;;;;1.13;1.07;;;8.00;99.90;;;;;;5075684;28;20173;-84
2023/10/23 07:17:16;;;;;;;1.37;1.37;;;8.10;99.90;;;;;;5058518;28;20262;-85
2023/10/23 07:19:42;;;;;;;1.07;1.07;;;8.60;99.90;;;;;;5041366;28;20558;-84
2023/10/23 07:22:08;;;;;;;1.47;1.27;;;8.80;99.90;;;;;;5075018;28;20216;-84
2023/10/23 07:24:34;;;;;;;1.03;1.03;;;8.60;99.90;;;;;;5074525;28;20647;-85
2023/10/23 07:26:59;;;;;;;2.10;1.90;;;8.60;99.90;;;;;;5075585;28;20247;-85
2023/10/23 07:29:25;;;;;;;1.63;1.53;;;8.60;99.90;;;;;;5057704;28;20693;-87
2023/10/23 07:31:51;;;;;;;1.70;1.60;;;8.70;99.90;;;;;;5074889;28;20221;-91
2023/10/23 07:34:19;;;;;;;3.73;1.90;;;8.90;99.90;;;;;;5074509;28;20213;-86
2023/10/23 07:36:45;;;;;;;2.03;1.93;;;9.20;99.90;;;;;;5057685;28;20224;-88
2023/10/23 07:39:11;;;;;;;2.20;2.00;;;9.60;99.90;;;;;;5075604;28;20261;-85
2023/10/23 07:41:37;;;;;;;1.80;1.70;;;10.00;99.90;;;;;;5057920;28;20213;-89
2023/10/23 07:44:04;;;;;;;4.83;3.10;;;10.30;99.90;;;;;;5074190;28;20217;-86
2023/10/23 07:46:29;;;;;;;2.13;1.97;;;10.60;99.90;;;;;;5058354;28;20225;-86
2023/10/23 07:48:55;;;;;;;3.80;3.47;;;10.70;99.90;;;;;;5057759;28;20321;-85
2023/10/23 07:51:21;;;;;;;4.70;3.77;;;11.00;99.90;;;;;;5075026;28;20600;-85
2023/10/23 07:53:47;;;;;;;5.53;3.37;;;12.10;99.90;;;;;;5075829;28;20197;-87
2023/10/23 07:56:13;;;;;;;6.03;5.33;;;13.10;99.90;;;;;;5079949;28;20561;-86
2023/10/23 07:58:39;;;;;;;8.33;5.83;;;13.80;99.90;;;;;;5074123;28;20605;-85
2023/10/23 08:01:09;;;;;;;15.07;7.10;;;15.00;99.90;;;;;;5057091;28;20269;-85
2023/10/23 08:03:35;;;;;;;11.07;6.37;;;15.70;99.90;;;;;;5073794;28;20180;-86
2023/10/23 08:06:05;;;;;;;15.93;10.77;;;16.10;99.90;;;;;;5074776;28;20290;-87
2023/10/23 08:08:36;;;;;;;19.77;10.33;;;16.80;99.90;;;;;;5074696;28;20367;-86
2023/10/23 08:11:09;;;;;;;19.13;11.47;;;17.40;99.90;;;;;;5056569;28;20239;-86
2023/10/23 08:13:35;;;;;;;15.77;9.80;;;17.10;99.90;;;;;;5073520;28;20736;-86
2023/10/23 08:16:04;;;;;;;10.40;6.97;;;16.50;99.90;;;;;;5074741;28;20575;-87
2023/10/23 08:18:30;;;;;;;6.40;4.37;;;16.10;99.90;;;;;;5073337;28;20177;-86
2023/10/23 08:20:56;;;;;;;4.57;3.50;;;16.60;99.90;;;;;;5073174;28;20238;-87
2023/10/23 08:23:24;;;;;;;3.30;3.00;;;16.40;99.90;;;;;;5057353;28;20299;-87
2023/10/23 08:25:52;;;;;;;3.90;2.90;;;15.80;99.90;;;;;;5073841;28;20327;-86
2023/10/23 08:28:18;;;;;;;4.40;3.47;;;15.50;99.90;;;;;;5040644;28;20300;-86
2023/10/23 08:30:43;;;;;;;3.50;2.70;;;15.30;99.90;;;;;;5073164;28;20260;-85
2023/10/23 08:33:09;;;;;;;3.90;3.47;;;15.00;99.90;;;;;;5074008;28;20663;-89
2023/10/23 08:35:35;;;;;;;3.03;2.73;;;14.80;99.90;;;;;;5074223;28;20225;-86
2023/10/23 08:38:01;;;;;;;4.83;2.90;;;14.50;99.90;;;;;;5073242;28;20404;-87
2023/10/23 08:40:27;;;;;;;4.43;3.50;;;14.50;99.90;;;;;;5073211;28;20213;-85
2023/10/23 08:42:53;;;;;;;4.87;3.50;;;14.50;99.90;;;;;;5073500;28;20228;-86
2023/10/23 08:45:19;;;;;;;6.13;3.40;;;14.50;99.90;;;;;;5074910;28;20232;-85
2023/10/23 08:47:44;;;;;;;5.70;3.27;;;14.40;99.90;;;;;;5056436;28;20649;-86
2023/10/23 08:50:11;;;;;;;4.87;3.63;;;14.40;99.90;;;;;;5056492;28;20682;-85
2023/10/23 08:52:54;;;;;;;3.63;2.60;;;14.40;99.90;;;;;;5073011;28;20214;-85
2023/10/23 08:55:21;;;;;;;5.17;2.47;;;14.30;99.90;;;;;;5074285;28;20221;-87
2023/10/23 08:57:53;;;;;;;3.67;2.57;;;14.10;99.90;;;;;;5072874;28;20213;-86
2023/10/23 09:00:22;;;;;;;4.27;2.73;;;14.00;99.90;;;;;;5073250;28;20181;-84
2023/10/23 09:02:52;;;;;;;5.07;3.30;;;13.90;99.90;;;;;;5073267;28;20229;-84
2023/10/23 09:05:19;;;;;;;9.20;2.80;;;14.00;99.90;;;;;;5073368;28;20275;-85
2023/10/23 09:07:45;;;;;;;4.80;3.37;;;14.10;99.90;;;;;;5072844;28;20217;-86
2023/10/23 09:10:11;;;;;;;3.33;2.93;;;14.20;99.90;;;;;;5055920;28;20292;-86
2023/10/23 09:12:39;;;;;;;9.20;3.03;;;14.20;99.90;;;;;;5072336;28;20173;-85
2023/10/23 09:15:16;;;;;;;4.63;3.07;;;14.20;99.90;;;;;;5073058;28;20193;-85
2023/10/23 09:17:43;;;;;;;5.07;2.67;;;14.20;99.90;;;;;;5074043;28;20245;-86
2023/10/23 09:20:18;;;;;;;10.83;4.23;;;14.20;99.90;;;;;;5039628;28;20213;-87
2023/10/23 09:22:47;;;;;;;5.37;2.97;;;14.30;99.90;;;;;;5073630;28;20266;-87
2023/10/23 09:25:17;;;;;;;3.37;3.03;;;14.30;99.90;;;;;;5072462;28;20221;-86
2023/10/23 09:27:44;;;;;;;5.40;3.93;;;14.40;99.90;;;;;;5073867;28;20293;-87
2023/10/23 09:30:10;;;;;;;3.80;3.03;;;14.40;99.90;;;;;;5072791;28;20671;-86
2023/10/23 09:32:37;;;;;;;4.30;2.43;;;14.40;99.90;;;;;;5055536;28;20300;-85
2023/10/23 09:35:10;;;;;;;11.23;3.50;;;14.50;99.90;;;;;;5055806;28;20634;-87
2023/10/23 09:37:39;;;;;;;5.63;3.57;;;14.60;99.90;;;;;;5072122;28;20674;-86
2023/10/23 09:40:09;;;;;;;2.93;2.63;;;14.50;99.90;;;;;;5072166;28;20293;-87
2023/10/23 09:42:35;;;;;;;2.83;2.53;;;14.60;99.90;;;;;;5071928;28;20173;-87
2023/10/23 09:45:03;;;;;;;3.27;2.87;;;14.60;99.90;;;;;;5055794;28;20272;-86
2023/10/23 09:47:30;;;;;;;3.47;3.13;;;14.60;99.90;;;;;;5072004;28;20210;-86
2023/10/23 09:49:59;;;;;;;4.37;2.60;;;14.60;99.90;;;;;;5072199;28;20286;-87
2023/10/23 09:52:26;;;;;;;10.27;3.13;;;14.70;99.90;;;;;;5064965;28;20302;-88
2023/10/23 09:55:19;;;;;;;3.47;2.83;;;14.80;99.90;;;;;;5080684;28;20661;-86
2023/10/23 09:57:50;;;;;;;3.27;2.37;;;15.00;99.90;;;;;;5068371;28;20565;-87
2023/10/23 10:00:17;;;;;;;3.30;3.00;;;15.00;99.90;;;;;;5072863;28;20650;-88
2023/10/23 10:02:50;;;;;;;2.60;2.37;;;15.00;99.90;;;;;;5039587;28;20213;-86
2023/10/23 10:05:33;;;;;;;3.30;2.73;;;15.20;99.90;;;;;;5071926;28;20237;-87
2023/10/23 10:08:03;;;;;;;2.77;1.80;;;15.20;99.90;;;;;;5073318;28;20744;-88
2023/10/23 10:10:30;;;;;;;2.67;2.47;;;15.20;99.90;;;;;;5073151;28;20209;-89
2023/10/23 10:12:56;;;;;;;2.70;2.20;;;15.30;99.90;;;;;;5072101;28;20215;-87
2023/10/23 10:15:23;;;;;;;11.20;2.97;;;15.40;99.90;;;;;;5055226;28;20219;-87
2023/10/23 10:17:50;;;;;;;3.90;2.50;;;15.50;99.90;;;;;;5073135;28;20177;-88
2023/10/23 10:20:21;;;;;;;2.80;2.60;;;15.60;99.90;;;;;;5055377;28;20324;-88
2023/10/23 10:23:11;;;;;;;4.97;2.87;;;15.80;99.90;;;;;;5071688;28;20213;-87
2023/10/23 10:25:45;;;;;;;3.13;1.93;;;15.80;99.90;;;;;;5071693;28;20300;-88
2023/10/23 10:28:11;;;;;;;3.27;2.10;;;15.70;99.90;;;;;;5072675;28;20220;-88
2023/10/23 10:30:45;;;;;;;2.07;1.80;;;15.70;99.90;;;;;;5072494;28;20570;-88
2023/10/23 10:33:24;;;;;;;4.97;2.50;;;15.80;99.90;;;;;;5071997;28;20268;-86
2023/10/23 10:35:59;;;;;;;2.67;2.10;;;16.00;99.90;;;;;;5071575;28;20212;-88
2023/10/23 10:38:27;;;;;;;2.37;2.17;;;16.00;99.90;;;;;;5072143;28;20217;-87
2023/10/23 10:41:17;;;;;;;2.17;1.43;;;16.20;99.90;;;;;;5071232;28;20627;-84
2023/10/23 10:43:53;;;;;;;2.07;1.60;;;16.20;99.90;;;;;;5059794;28;20221;-88
2023/10/23 10:46:26;;;;;;;2.37;1.60;;;16.60;99.90;;;;;;5071243;28;20778;-88
2023/10/23 10:48:54;;;;;;;1.70;1.37;;;16.70;99.90;;;;;;5071366;28;20217;-88
2023/10/23 10:51:32;;;;;;;1.77;1.20;;;16.50;99.90;;;;;;5073220;28;20602;-89
2023/10/23 10:54:11;;;;;;;1.90;0.87;;;16.80;99.90;;;;;;5055623;28;20203;-88
2023/10/23 10:56:37;;;;;;;1.13;0.87;;;16.90;99.90;;;;;;5053120;28;20235;-87
2023/10/23 10:59:04;;;;;;;1.17;1.07;;;17.10;99.90;;;;;;5063858;28;20221;-88
2023/10/23 11:01:30;;;;;;;4.20;1.33;;;17.10;99.90;;;;;;5065445;28;20687;-87
2023/10/23 11:03:56;;;;;;;1.70;1.20;;;17.30;99.90;;;;;;5072292;28;20177;-88
2023/10/23 11:06:24;;;;;;;1.90;1.13;;;17.40;99.90;;;;;;5063189;28;20271;-89
2023/10/23 11:08:54;;;;;;;1.37;1.27;;;17.20;99.90;;;;;;5071426;28;20228;-88
2023/10/23 11:11:22;;;;;;;1.80;1.30;;;17.00;99.90;;;;;;5072489;28;20288;-89
2023/10/23 11:13:48;;;;;;;1.63;1.20;;;16.80;99.90;;;;;;5070845;28;20209;-89
2023/10/23 11:16:15;;;;;;;0.90;0.80;;;16.60;99.90;;;;;;5071585;28;20625;-89
2023/10/23 11:18:42;;;;;;;2.10;1.33;;;16.60;99.90;;;;;;5055017;28;20527;-88
2023/10/23 11:21:16;;;;;;;1.17;1.07;;;16.60;99.90;;;;;;5072717;28;20173;-89
2023/10/23 11:23:49;;;;;;;1.37;0.77;;;16.80;99.90;;;;;;5072110;28;20614;-89
2023/10/23 11:26:17;;;;;;;1.40;1.30;;;17.00;99.90;;;;;;5055744;28;20202;-88
2023/10/23 11:28:50;;;;;;;1.90;1.10;;;17.00;99.90;;;;;;5071178;28;20174;-89
2023/10/23 11:31:16;;;;;;;0.83;0.83;;;16.90;99.90;;;;;;5055287;28;20174;-89
2023/10/23 11:33:52;;;;;;;0.80;0.80;;;17.20;99.90;;;;;;5056305;28;20165;-88
2023/10/23 11:36:32;;;;;;;4.13;1.87;;;17.00;99.90;;;;;;5071704;28;20170;-89
2023/10/23 11:39:56;;;;;;;1.00;0.90;;;17.10;99.90;;;;;;5059349;28;20181;-90
2023/10/23 11:42:42;;;;;;;2.50;0.90;;;16.60;99.90;;;;;;5071110;28;20660;-90
2023/10/23 11:49:37;;;;;;;6.37;1.00;;;16.50;99.90;;;;;;4992001;28;20262;-90
2023/10/23 11:52:04;;;;;;;1.17;0.80;;;16.40;99.90;;;;;;4991223;28;20338;-89
2023/10/23 11:58:31;;;;;;;1.20;0.87;;;16.30;99.90;;;;;;4904276;28;20266;-89
2023/10/23 12:00:57;;;;;;;1.07;1.00;;;16.20;99.90;;;;;;5069448;28;20200;-90
2023/10/23 12:03:22;;;;;;;0.97;0.97;;;16.20;99.90;;;;;;5074800;28;20213;-89
2023/10/23 12:05:51;;;;;;;0.77;0.77;;;16.20;99.90;;;;;;5058469;28;20205;-89
2023/10/23 12:11:59;;;;;;;3.87;1.20;;;16.30;99.90;;;;;;5075640;28;20633;-89
2023/10/23 12:14:28;;;;;;;1.40;1.17;;;16.20;99.90;;;;;;5074994;28;20244;-89
2023/10/23 12:17:00;;;;;;;2.30;0.70;;;16.00;99.90;;;;;;5057389;28;20213;-91
2023/10/23 12:19:35;;;;;;;0.80;0.70;;;15.80;99.90;;;;;;5057191;28;20288;-90
2023/10/23 12:22:01;;;;;;;0.70;0.70;;;15.80;99.90;;;;;;5076484;28;20268;-90
2023/10/23 12:29:14;;;;;;;0.50;0.50;;;15.70;99.90;;;;;;5044714;28;20227;-90
2023/10/23 12:32:14;;;;;;;0.60;0.60;;;15.60;99.90;;;;;;5036387;28;20228;-89
2023/10/23 12:34:40;;;;;;;1.07;0.80;;;15.60;99.90;;;;;;5013048;28;20227;-90
2023/10/23 12:37:11;;;;;;;0.60;0.50;;;15.70;99.90;;;;;;5042571;28;20267;-90
2023/10/23 12:40:11;;;;;;;1.20;0.60;;;15.50;99.90;;;;;;5075365;28;20185;-90
2023/10/23 12:42:39;;;;;;;1.70;0.70;;;15.30;99.90;;;;;;5057431;28;20205;-90
2023/10/23 12:45:28;;;;;;;0.60;0.57;;;15.30;99.90;;;;;;4969958;28;20228;-90
2023/10/23 12:48:17;;;;;;;;;;;;;;;;;;;;;
2023/10/23 12:50:46;;;;;;;1.17;1.17;;;15.30;99.90;;;;;;4984349;28;20220;-90
2023/10/23 12:53:12;;;;;;;1.53;0.53;;;15.30;99.90;;;;;;4992685;28;20318;-89
2023/10/23 12:55:41;;;;;;;0.77;0.77;;;15.30;99.90;;;;;;5051354;28;20344;-90
2023/10/23 12:58:09;;;;;;;2.10;1.40;;;15.40;99.90;;;;;;5056941;28;20210;-91
2023/10/23 13:00:36;;;;;;;0.80;0.80;;;15.30;99.90;;;;;;5057533;28;20169;-92
2023/10/23 13:03:04;;;;;;;1.30;0.97;;;15.40;99.90;;;;;;5074596;28;20225;-90
2023/10/23 13:05:30;;;;;;;0.63;0.63;;;15.30;99.90;;;;;;5074268;28;20239;-91
2023/10/23 13:07:56;;;;;;;1.27;0.50;;;15.20;99.90;;;;;;5073555;28;20208;-91
2023/10/23 13:10:24;;;;;;;1.50;1.40;;;15.20;99.90;;;;;;5055605;28;20199;-89
2023/10/23 13:12:50;;;;;;;0.97;0.53;;;15.20;99.90;;;;;;5074966;28;20181;-89
2023/10/23 13:15:15;;;;;;;0.53;0.53;;;15.20;99.90;;;;;;5074780;28;20225;-90